createdAt,value
2023-05-14T00:00:16.940Z,12.40
2023-05-14T00:02:38.483Z,12.41
2023-05-14T00:05:00.023Z,12.38
2023-05-14T00:07:21.475Z,12.31
2023-05-14T00:09:42.971Z,12.26
2023-05-14T00:12:04.910Z,12.12
2023-05-14T00:14:26.500Z,12.15
2023-05-14T00:16:47.975Z,12.05
2023-05-14T00:19:09.451Z,11.92
2023-05-14T00:21:31.828Z,11.94
2023-05-14T00:23:53.323Z,11.85
2023-05-14T00:26:14.722Z,11.83
2023-05-14T00:28:36.148Z,11.85
2023-05-14T00:30:57.632Z,11.83
2023-05-14T00:33:19.144Z,11.85
2023-05-14T00:35:40.559Z,11.83
2023-05-14T00:38:03.510Z,11.84
2023-05-14T00:40:28.285Z,11.83
2023-05-14T00:42:49.726Z,11.80
2023-05-14T00:45:11.363Z,11.62
2023-05-14T00:47:34.857Z,11.53
2023-05-14T00:49:56.353Z,11.58
2023-05-14T00:52:18.112Z,11.55
2023-05-14T00:54:39.606Z,11.38
2023-05-14T00:57:01.253Z,11.48
2023-05-14T00:59:22.740Z,11.54
2023-05-14T01:01:44.374Z,11.46
2023-05-14T01:04:07.693Z,11.59
2023-05-14T01:06:35.815Z,11.46
2023-05-14T01:09:17.280Z,11.33
2023-05-14T01:11:59.818Z,11.31
2023-05-14T01:14:26.357Z,11.17
2023-05-14T01:16:51.076Z,11.15
2023-05-14T01:19:46.582Z,11.13
2023-05-14T01:22:08.481Z,11.20
2023-05-14T01:24:29.999Z,11.24
2023-05-14T01:26:51.514Z,11.24
2023-05-14T01:29:19.538Z,11.30
2023-05-14T01:31:44.275Z,11.36
2023-05-14T01:34:07.891Z,11.41
2023-05-14T01:36:29.950Z,11.34
2023-05-14T01:38:51.932Z,10.99
2023-05-14T01:41:14.460Z,10.87
2023-05-14T01:43:37.307Z,10.86
2023-05-14T01:45:58.927Z,10.94
2023-05-14T01:48:20.662Z,11.03
2023-05-14T01:50:42.137Z,11.10
2023-05-14T01:53:03.724Z,11.15
2023-05-14T01:55:25.733Z,11.19
2023-05-14T01:57:47.176Z,11.26
2023-05-14T02:00:09.378Z,11.31
2023-05-14T02:02:31.143Z,11.34
2023-05-14T02:04:52.619Z,11.37
2023-05-14T02:07:14.087Z,11.37
2023-05-14T02:09:36.201Z,11.10
2023-05-14T02:11:57.777Z,10.99
2023-05-14T02:14:19.217Z,11.06
2023-05-14T02:16:41.087Z,11.15
2023-05-14T02:19:02.579Z,11.14
2023-05-14T02:21:24.249Z,11.20
2023-05-14T02:23:45.703Z,11.17
2023-05-14T02:26:08.538Z,11.23
2023-05-14T02:28:29.993Z,11.22
2023-05-14T02:30:51.496Z,11.24
2023-05-14T02:33:13.088Z,11.24
2023-05-14T02:35:34.609Z,11.29
2023-05-14T02:37:56.262Z,11.27
2023-05-14T02:40:17.845Z,11.19
2023-05-14T02:42:39.430Z,10.86
2023-05-14T02:45:00.986Z,10.86
2023-05-14T02:47:22.500Z,10.88
2023-05-14T02:49:43.957Z,10.88
2023-05-14T02:52:05.521Z,10.90
2023-05-14T02:54:27.114Z,10.87
2023-05-14T02:56:48.614Z,10.83
2023-05-14T02:59:10.153Z,10.87
2023-05-14T03:01:32.100Z,10.87
2023-05-14T03:03:53.866Z,10.85
2023-05-14T03:06:15.326Z,10.86
2023-05-14T03:08:36.755Z,10.80
2023-05-14T03:10:58.183Z,10.78
2023-05-14T03:13:20.795Z,10.63
2023-05-14T03:15:42.258Z,10.52
2023-05-14T03:18:03.780Z,10.51
2023-05-14T03:20:26.904Z,10.32
2023-05-14T03:22:48.398Z,10.28
2023-05-14T03:25:10.029Z,10.32
2023-05-14T03:27:31.512Z,10.41
2023-05-14T03:29:52.946Z,10.42
2023-05-14T03:32:14.999Z,10.42
2023-05-14T03:34:36.917Z,10.42
2023-05-14T03:36:58.368Z,10.37
2023-05-14T03:39:19.846Z,10.39
2023-05-14T03:41:41.589Z,10.38
2023-05-14T03:44:03.081Z,10.28
2023-05-14T03:46:24.537Z,10.28
2023-05-14T03:48:46.031Z,10.31
2023-05-14T03:51:07.578Z,10.20
2023-05-14T03:53:29.133Z,10.25
2023-05-14T03:55:50.793Z,10.30
2023-05-14T03:58:14.357Z,10.32
2023-05-14T04:00:36.543Z,10.40
2023-05-14T04:02:58.074Z,10.42
2023-05-14T04:05:19.711Z,10.30
2023-05-14T04:07:41.159Z,10.35
2023-05-14T04:10:04.734Z,10.38
2023-05-14T04:12:26.793Z,10.22
2023-05-14T04:14:48.251Z,10.27
2023-05-14T04:17:09.736Z,10.32
2023-05-14T04:19:31.396Z,10.26
2023-05-14T04:21:52.833Z,10.24
2023-05-14T04:24:14.278Z,10.29
2023-05-14T04:26:35.696Z,10.29
2023-05-14T04:28:57.183Z,10.35
2023-05-14T04:31:18.682Z,10.41
2023-05-14T04:33:40.266Z,10.36
2023-05-14T04:36:02.058Z,10.41
2023-05-14T04:38:23.650Z,10.34
2023-05-14T04:40:45.057Z,10.37
2023-05-14T04:43:06.707Z,10.48
2023-05-14T04:45:28.219Z,10.51
2023-05-14T04:47:49.699Z,10.60
2023-05-14T04:50:11.178Z,10.63
2023-05-14T04:52:33.110Z,10.66
2023-05-14T04:54:54.786Z,10.77
2023-05-14T04:57:16.546Z,10.84
2023-05-14T04:59:38.045Z,11.08
2023-05-14T05:01:59.516Z,11.13
2023-05-14T05:04:21.066Z,11.21
2023-05-14T05:06:42.510Z,11.28
2023-05-14T05:09:04.559Z,11.34
2023-05-14T05:11:26.044Z,11.44
2023-05-14T05:13:47.452Z,11.55
2023-05-14T05:16:08.926Z,11.62
2023-05-14T05:18:30.420Z,11.62
2023-05-14T05:20:51.921Z,11.70
2023-05-14T05:23:13.410Z,11.69
2023-05-14T05:25:34.861Z,11.78
2023-05-14T05:27:56.576Z,11.80
2023-05-14T05:30:18.587Z,11.88
2023-05-14T05:32:40.470Z,11.91
2023-05-14T05:35:02.067Z,11.96
2023-05-14T05:37:23.556Z,11.98
2023-05-14T05:39:45.686Z,12.08
2023-05-14T05:42:07.549Z,12.19
2023-05-14T05:44:29.030Z,12.31
2023-05-14T05:46:51.112Z,12.36
2023-05-14T05:49:12.715Z,12.40
2023-05-14T05:51:34.150Z,12.45
2023-05-14T05:53:55.944Z,12.52
2023-05-14T05:56:17.387Z,12.56
2023-05-14T05:58:38.917Z,12.57
2023-05-14T06:01:00.444Z,12.79
2023-05-14T06:03:22.285Z,13.03
2023-05-14T06:05:43.960Z,13.32
2023-05-14T06:08:05.805Z,13.56
2023-05-14T06:10:27.330Z,13.76
2023-05-14T06:12:48.765Z,13.95
2023-05-14T06:15:11.357Z,14.02
2023-05-14T06:17:32.964Z,14.10
2023-05-14T06:19:54.531Z,14.11
2023-05-14T06:22:16.230Z,14.15
2023-05-14T06:24:37.648Z,14.15
2023-05-14T06:26:59.085Z,14.21
2023-05-14T06:29:20.636Z,14.17
2023-05-14T06:31:42.119Z,14.27
2023-05-14T06:34:03.676Z,14.30
2023-05-14T06:36:25.161Z,14.36
2023-05-14T06:38:46.638Z,14.33
2023-05-14T06:41:08.124Z,14.37
2023-05-14T06:43:29.585Z,14.49
2023-05-14T06:45:52.209Z,14.49
2023-05-14T06:48:13.737Z,14.57
2023-05-14T06:50:35.328Z,14.68
2023-05-14T06:52:56.788Z,14.57
2023-05-14T06:55:18.295Z,14.67
2023-05-14T06:57:40.761Z,14.80
2023-05-14T07:00:03.646Z,14.93
2023-05-14T07:02:25.497Z,14.98
2023-05-14T07:04:47.037Z,15.13
2023-05-14T07:07:10.550Z,15.16
2023-05-14T07:09:32.052Z,15.29
2023-05-14T07:11:53.473Z,15.53
2023-05-14T07:14:14.945Z,15.58
2023-05-14T07:16:36.846Z,15.73
2023-05-14T07:18:58.422Z,15.81
2023-05-14T07:21:19.909Z,15.83
2023-05-14T07:23:41.362Z,15.95
2023-05-14T07:26:03.705Z,16.28
2023-05-14T07:28:25.143Z,16.17
2023-05-14T07:30:46.634Z,16.44
2023-05-14T07:33:08.132Z,16.78
2023-05-14T07:35:29.623Z,16.83
2023-05-14T07:37:51.216Z,16.77
2023-05-14T07:40:12.734Z,16.68
2023-05-14T07:42:36.971Z,16.72
2023-05-14T07:44:58.983Z,16.96
2023-05-14T07:47:20.493Z,17.04
2023-05-14T07:49:42.032Z,17.36
2023-05-14T07:52:03.685Z,17.38
2023-05-14T07:54:25.280Z,17.67
2023-05-14T07:56:46.778Z,17.88
2023-05-14T07:59:08.348Z,17.91
2023-05-14T08:01:31.253Z,18.05
2023-05-14T08:03:52.838Z,18.44
2023-05-14T08:06:14.582Z,18.63
2023-05-14T08:08:36.315Z,19.15
2023-05-14T08:10:58.001Z,19.44
2023-05-14T08:13:19.511Z,19.72
2023-05-14T08:15:41.534Z,20.06
2023-05-14T08:18:03.812Z,20.20
2023-05-14T08:20:25.528Z,20.11
2023-05-14T08:22:47.302Z,20.11
2023-05-14T08:25:08.939Z,20.19
2023-05-14T08:27:30.367Z,19.98
2023-05-14T08:29:52.108Z,19.98
2023-05-14T08:32:22.734Z,20.08
2023-05-14T08:34:45.494Z,20.63
2023-05-14T08:37:06.975Z,20.94
2023-05-14T08:39:28.601Z,21.08
2023-05-14T08:41:50.188Z,21.22
2023-05-14T08:44:19.232Z,21.62
2023-05-14T08:46:41.731Z,21.45
2023-05-14T08:49:19.759Z,21.67
2023-05-14T08:51:41.752Z,21.99
2023-05-14T08:54:03.568Z,22.43
2023-05-14T08:56:26.373Z,22.68
2023-05-14T08:58:47.808Z,23.17
2023-05-14T09:01:09.595Z,23.22
2023-05-14T09:03:31.411Z,23.48
2023-05-14T09:05:53.918Z,23.25
2023-05-14T09:08:15.391Z,23.54
2023-05-14T09:10:39.884Z,23.52
2023-05-14T09:13:01.380Z,23.23
2023-05-14T09:15:25.004Z,23.33
2023-05-14T09:17:48.022Z,23.22
2023-05-14T09:20:12.341Z,23.32
2023-05-14T09:22:34.879Z,22.98
2023-05-14T09:25:09.402Z,22.81
2023-05-14T09:27:32.878Z,22.76
2023-05-14T09:29:54.294Z,23.24
2023-05-14T09:32:15.840Z,23.09
2023-05-14T09:34:39.947Z,22.95
2023-05-14T09:37:03.553Z,22.88
2023-05-14T09:39:26.446Z,23.01
2023-05-14T09:41:47.953Z,22.89
2023-05-14T09:44:09.445Z,22.68
2023-05-14T09:46:31.943Z,22.97
2023-05-14T09:48:53.391Z,23.36
2023-05-14T09:51:14.975Z,23.15
2023-05-14T09:53:37.007Z,22.72
2023-05-14T09:55:58.530Z,22.81
2023-05-14T09:58:19.972Z,23.25
2023-05-14T10:00:45.589Z,23.20
2023-05-14T10:03:08.196Z,23.01
2023-05-14T10:05:29.946Z,22.94
2023-05-14T10:07:54.178Z,22.60
2023-05-14T10:10:19.606Z,22.93
2023-05-14T10:12:41.802Z,22.76
2023-05-14T10:15:11.147Z,22.57
2023-05-14T10:17:35.832Z,22.68
2023-05-14T10:19:59.941Z,22.65
2023-05-14T10:22:31.137Z,22.75
2023-05-14T10:24:53.653Z,22.76
2023-05-14T10:27:17.133Z,22.71
2023-05-14T10:29:38.585Z,23.01
2023-05-14T10:32:05.304Z,23.16
2023-05-14T10:34:33.421Z,23.26
2023-05-14T10:36:54.917Z,23.30
2023-05-14T10:39:16.531Z,23.06
2023-05-14T10:41:38.710Z,22.88
2023-05-14T10:44:09.404Z,22.83
2023-05-14T10:46:31.539Z,22.99
2023-05-14T10:48:53.360Z,23.21
2023-05-14T10:51:17.462Z,23.71
2023-05-14T10:53:41.762Z,23.76
2023-05-14T10:56:07.812Z,24.02
2023-05-14T10:58:32.216Z,23.68
2023-05-14T11:00:55.667Z,23.77
2023-05-14T11:03:18.311Z,23.51
2023-05-14T11:05:41.238Z,23.76
2023-05-14T11:08:05.930Z,24.35
2023-05-14T11:10:29.989Z,24.37
2023-05-14T11:12:52.562Z,24.62
2023-05-14T11:15:22.063Z,25.37
2023-05-14T11:17:44.878Z,26.02
2023-05-14T11:20:07.243Z,26.92
2023-05-14T11:22:29.041Z,27.17
2023-05-14T11:24:51.111Z,27.35
2023-05-14T11:27:12.906Z,26.99
2023-05-14T11:29:35.366Z,26.81
2023-05-14T11:31:56.844Z,26.50
2023-05-14T11:34:18.318Z,26.42
2023-05-14T11:36:39.775Z,26.30
2023-05-14T11:39:01.322Z,26.01
2023-05-14T11:41:23.211Z,26.10
2023-05-14T11:43:45.011Z,26.19
2023-05-14T11:46:06.985Z,26.08
2023-05-14T11:48:28.435Z,25.74
2023-05-14T11:50:53.174Z,25.65
2023-05-14T11:53:25.324Z,24.77
2023-05-14T11:55:47.503Z,24.21
2023-05-14T11:58:09.143Z,24.07
2023-05-14T12:00:31.375Z,23.69
2023-05-14T12:02:52.996Z,23.61
2023-05-14T12:05:14.525Z,23.54
2023-05-14T12:07:36.093Z,23.26
2023-05-14T12:10:01.253Z,23.01
2023-05-14T12:12:23.206Z,22.94
2023-05-14T12:14:45.506Z,22.69
2023-05-14T12:17:12.438Z,22.38
2023-05-14T12:19:40.119Z,22.12
2023-05-14T12:22:01.593Z,22.10
2023-05-14T12:24:25.613Z,22.03
2023-05-14T12:26:48.179Z,22.05
2023-05-14T12:29:13.433Z,22.17
2023-05-14T12:31:36.451Z,23.35
2023-05-14T12:33:58.202Z,24.65
2023-05-14T12:36:21.669Z,25.89
2023-05-14T12:38:43.892Z,26.44
2023-05-14T12:41:05.620Z,27.42
2023-05-14T12:43:31.501Z,28.91
2023-05-14T12:45:52.971Z,28.87
2023-05-14T12:48:14.588Z,27.43
2023-05-14T12:50:36.227Z,26.31
2023-05-14T12:52:57.868Z,25.52
2023-05-14T12:55:19.438Z,26.61
2023-05-14T12:57:41.336Z,27.67
2023-05-14T13:00:07.015Z,28.43
2023-05-14T13:02:28.651Z,26.74
2023-05-14T13:04:50.097Z,25.60
2023-05-14T13:07:11.923Z,24.82
2023-05-14T13:09:33.368Z,24.26
2023-05-14T13:11:54.784Z,23.69
2023-05-14T13:14:16.999Z,23.02
2023-05-14T13:16:39.286Z,22.62
2023-05-14T13:19:00.883Z,22.19
2023-05-14T13:21:22.499Z,21.88
2023-05-14T13:23:43.970Z,21.66
2023-05-14T13:26:05.680Z,21.44
2023-05-14T13:28:27.155Z,21.39
2023-05-14T13:31:07.483Z,21.73
2023-05-14T13:33:28.983Z,21.90
2023-05-14T13:35:50.440Z,21.83
2023-05-14T13:38:11.919Z,22.00
2023-05-14T13:40:33.418Z,22.44
2023-05-14T13:42:54.897Z,23.39
2023-05-14T13:45:16.399Z,23.34
2023-05-14T13:47:38.292Z,23.40
2023-05-14T13:50:00.897Z,23.09
2023-05-14T13:52:22.661Z,22.72
2023-05-14T13:54:44.135Z,22.67
2023-05-14T13:57:05.633Z,22.58
2023-05-14T13:59:27.854Z,24.95
2023-05-14T14:01:50.120Z,26.50
2023-05-14T14:04:11.724Z,25.82
2023-05-14T14:06:33.365Z,24.92
2023-05-14T14:08:54.830Z,24.22
2023-05-14T14:11:16.952Z,23.44
2023-05-14T14:13:38.538Z,23.17
2023-05-14T14:16:00.074Z,22.83
2023-05-14T14:18:21.621Z,22.54
2023-05-14T14:20:43.079Z,22.55
2023-05-14T14:23:04.530Z,22.44
2023-05-14T14:25:26.019Z,22.52
2023-05-14T14:27:48.085Z,24.86
2023-05-14T14:30:15.646Z,26.54
2023-05-14T14:32:37.308Z,27.74
2023-05-14T14:34:58.793Z,29.38
2023-05-14T14:37:21.282Z,30.68
2023-05-14T14:39:44.488Z,31.95
2023-05-14T14:42:06.844Z,32.78
2023-05-14T14:44:28.263Z,33.52
2023-05-14T14:46:49.720Z,35.19
2023-05-14T14:49:11.144Z,36.40
2023-05-14T14:51:33.093Z,36.46
2023-05-14T14:53:54.608Z,35.96
2023-05-14T14:56:16.106Z,35.13
2023-05-14T14:58:38.381Z,34.80
2023-05-14T15:01:01.189Z,35.07
2023-05-14T15:03:24.566Z,34.83
2023-05-14T15:05:46.142Z,33.89
2023-05-14T15:08:07.625Z,33.33
2023-05-14T15:10:29.471Z,31.94
2023-05-14T15:12:51.079Z,30.63
2023-05-14T15:15:12.534Z,29.87
2023-05-14T15:17:34.030Z,28.81
2023-05-14T15:19:55.601Z,28.71
2023-05-14T15:22:17.151Z,28.38
2023-05-14T15:24:38.602Z,28.50
2023-05-14T15:27:00.151Z,29.60
2023-05-14T15:29:21.625Z,31.32
2023-05-14T15:31:45.060Z,31.02
2023-05-14T15:34:06.555Z,31.82
2023-05-14T15:36:28.644Z,32.56
2023-05-14T15:38:50.093Z,33.92
2023-05-14T15:41:11.514Z,34.05
2023-05-14T15:43:32.944Z,34.26
2023-05-14T15:45:54.385Z,32.72
2023-05-14T15:48:16.069Z,31.46
2023-05-14T15:50:38.450Z,29.36
2023-05-14T15:55:36.067Z,26.93
2023-05-14T15:57:57.520Z,25.80
2023-05-14T16:00:19.564Z,24.79
2023-05-14T16:02:41.333Z,24.05
2023-05-14T16:05:03.072Z,23.70
2023-05-14T16:07:24.577Z,23.20
2023-05-14T16:09:46.040Z,22.94
2023-05-14T16:12:09.087Z,22.91
2023-05-14T16:14:30.592Z,22.46
2023-05-14T16:16:53.377Z,22.42
2023-05-14T16:19:15.376Z,22.66
2023-05-14T16:21:36.899Z,22.79
2023-05-14T16:23:58.377Z,22.79
2023-05-14T16:26:19.854Z,22.72
2023-05-14T16:28:42.705Z,22.61
2023-05-14T16:31:04.198Z,22.65
2023-05-14T16:33:25.694Z,22.41
2023-05-14T16:35:47.174Z,22.34
2023-05-14T16:38:08.617Z,22.10
2023-05-14T16:40:30.280Z,22.14
2023-05-14T16:42:52.002Z,22.13
2023-05-14T16:45:13.777Z,21.41
2023-05-14T16:47:35.809Z,21.14
2023-05-14T16:49:57.287Z,22.41
2023-05-14T16:52:18.721Z,23.36
2023-05-14T16:54:41.251Z,24.50
2023-05-14T16:57:02.686Z,24.66
2023-05-14T16:59:25.177Z,25.35
2023-05-14T17:01:48.071Z,26.06
2023-05-14T17:04:10.148Z,25.44
2023-05-14T17:06:31.927Z,23.85
2023-05-14T17:08:53.395Z,23.01
2023-05-14T17:11:14.869Z,23.05
2023-05-14T17:13:36.375Z,23.16
2023-05-14T17:15:57.815Z,22.89
2023-05-14T17:18:19.340Z,22.74
2023-05-14T17:20:40.875Z,22.32
2023-05-14T17:23:02.394Z,21.83
2023-05-14T17:25:26.299Z,21.11
2023-05-14T17:27:47.885Z,20.51
2023-05-14T17:30:09.781Z,20.08
2023-05-14T17:32:31.524Z,19.84
2023-05-14T17:34:53.109Z,19.40
2023-05-14T17:37:14.571Z,19.75
2023-05-14T17:39:36.003Z,19.91
2023-05-14T17:41:57.448Z,19.55
2023-05-14T17:44:18.861Z,19.38
2023-05-14T17:46:41.831Z,19.31
2023-05-14T17:49:03.323Z,19.12
2023-05-14T17:51:25.216Z,18.87
2023-05-14T17:53:46.702Z,18.84
2023-05-14T17:56:08.197Z,18.50
2023-05-14T17:58:29.857Z,18.42
2023-05-14T18:00:51.438Z,18.31
2023-05-14T18:03:14.275Z,18.43
2023-05-14T18:05:36.219Z,18.62
2023-05-14T18:07:58.474Z,18.55
2023-05-14T18:10:19.935Z,18.59
2023-05-14T18:12:41.744Z,18.46
2023-05-14T18:15:03.376Z,18.41
2023-05-14T18:17:24.961Z,18.70
2023-05-14T18:19:46.409Z,18.84
2023-05-14T18:22:07.858Z,18.84
2023-05-14T18:24:29.259Z,19.04
2023-05-14T18:26:50.912Z,18.78
2023-05-14T18:29:12.557Z,18.52
2023-05-14T18:31:34.036Z,18.58
2023-05-14T18:33:55.732Z,18.71
2023-05-14T18:36:17.991Z,18.72
2023-05-14T18:38:40.789Z,18.70
2023-05-14T18:41:02.450Z,18.68
2023-05-14T18:43:23.912Z,18.59
2023-05-14T18:45:47.116Z,18.56
2023-05-14T18:48:09.325Z,18.57
2023-05-14T18:50:30.951Z,18.61
2023-05-14T18:52:52.380Z,18.64
2023-05-14T18:55:13.864Z,18.62
2023-05-14T18:57:36.854Z,18.51
2023-05-14T19:00:01.270Z,18.22
2023-05-14T19:02:22.795Z,18.21
2023-05-14T19:04:52.208Z,18.04
2023-05-14T19:07:15.135Z,18.04
2023-05-14T19:09:36.860Z,17.94
2023-05-14T19:11:58.383Z,17.86
2023-05-14T19:14:19.818Z,17.80
2023-05-14T19:16:41.342Z,17.79
2023-05-14T19:19:02.887Z,17.59
2023-05-14T19:21:24.352Z,17.47
2023-05-14T19:23:45.814Z,17.35
2023-05-14T19:26:07.502Z,17.30
2023-05-14T19:28:29.010Z,17.38
2023-05-14T19:30:53.427Z,17.34
2023-05-14T19:33:14.944Z,17.32
2023-05-14T19:35:36.389Z,17.51
2023-05-14T19:37:57.821Z,17.45
2023-05-14T19:40:19.302Z,17.43
2023-05-14T19:42:40.737Z,17.39
2023-05-14T19:45:02.484Z,17.42
2023-05-14T19:47:23.971Z,17.39
2023-05-14T19:49:45.431Z,17.40
2023-05-14T19:52:06.885Z,17.11
2023-05-14T19:54:28.328Z,16.77
2023-05-14T19:56:49.764Z,16.56
2023-05-14T19:59:11.276Z,16.43
2023-05-14T20:01:34.325Z,16.44
2023-05-14T20:03:55.935Z,16.53
2023-05-14T20:06:17.493Z,16.65
2023-05-14T20:08:40.122Z,16.65
2023-05-14T20:11:01.640Z,16.73
2023-05-14T20:13:25.063Z,16.78
2023-05-14T20:15:46.755Z,16.82
2023-05-14T20:18:08.612Z,16.80
2023-05-14T20:20:32.879Z,16.82
2023-05-14T20:22:54.982Z,16.82
2023-05-14T20:25:16.445Z,16.76
2023-05-14T20:27:38.124Z,16.57
2023-05-14T20:29:59.548Z,16.36
2023-05-14T20:32:24.888Z,16.43
2023-05-14T20:34:46.537Z,16.47
2023-05-14T20:37:08.653Z,16.51
2023-05-14T20:39:30.192Z,16.53
2023-05-14T20:41:51.683Z,16.53
2023-05-14T20:44:13.167Z,16.52
2023-05-14T20:46:34.629Z,16.48
2023-05-14T20:48:57.061Z,16.33
2023-05-14T20:51:18.489Z,16.27
2023-05-14T20:53:40.127Z,16.31
2023-05-14T20:56:01.705Z,16.27
2023-05-14T20:58:23.264Z,16.24
2023-05-14T21:00:44.671Z,16.18
2023-05-14T21:03:06.305Z,16.16
2023-05-14T21:05:28.092Z,16.21
2023-05-14T21:07:49.600Z,16.18
2023-05-14T21:10:11.280Z,16.03
2023-05-14T21:12:32.748Z,15.98
2023-05-14T21:14:54.164Z,15.93
2023-05-14T21:17:15.661Z,15.88
2023-05-14T21:19:37.252Z,15.87
2023-05-14T21:21:58.696Z,15.88
2023-05-14T21:24:20.196Z,15.87
2023-05-14T21:26:41.742Z,15.80
2023-05-14T21:29:04.085Z,15.80
2023-05-14T21:31:25.678Z,15.73
2023-05-14T21:33:47.796Z,15.49
2023-05-14T21:36:09.907Z,15.47
2023-05-14T21:38:32.562Z,15.45
2023-05-14T21:40:54.002Z,15.50
2023-05-14T21:43:15.572Z,15.48
2023-05-14T21:45:37.234Z,15.38
2023-05-14T21:47:58.817Z,15.20
2023-05-14T21:50:20.502Z,15.14
2023-05-14T21:52:42.087Z,15.11
2023-05-14T21:55:03.847Z,15.09
2023-05-14T21:57:28.046Z,15.05
2023-05-14T21:59:50.106Z,15.06
2023-05-14T22:02:11.619Z,15.06
2023-05-14T22:04:33.170Z,14.88
2023-05-14T22:06:54.664Z,14.70
2023-05-14T22:09:16.276Z,14.69
2023-05-14T22:11:37.771Z,14.69
2023-05-14T22:13:59.192Z,14.63
2023-05-14T22:16:22.362Z,14.56
2023-05-14T22:18:44.153Z,14.54
2023-05-14T22:21:06.161Z,14.52
2023-05-14T22:23:27.623Z,14.48
2023-05-14T22:25:49.058Z,14.27
2023-05-14T22:28:10.619Z,14.05
2023-05-14T22:30:32.112Z,14.11
2023-05-14T22:32:53.606Z,14.12
2023-05-14T22:35:15.378Z,14.04
2023-05-14T22:37:37.100Z,14.04
2023-05-14T22:39:59.174Z,14.03
2023-05-14T22:42:20.639Z,13.84
2023-05-14T22:44:42.090Z,13.84
2023-05-14T22:47:05.218Z,13.83
2023-05-14T22:49:26.696Z,13.71
2023-05-14T22:51:48.188Z,13.36
2023-05-14T22:54:10.624Z,13.47
2023-05-14T22:56:32.216Z,13.48
2023-05-14T22:58:53.695Z,13.45
2023-05-14T23:01:15.247Z,13.28
2023-05-14T23:03:36.748Z,13.45
2023-05-14T23:05:58.191Z,13.51
2023-05-14T23:08:19.675Z,13.39
2023-05-14T23:10:41.138Z,13.18
2023-05-14T23:13:03.804Z,13.18
2023-05-14T23:15:25.527Z,12.92
2023-05-14T23:17:47.365Z,12.88
2023-05-14T23:20:12.631Z,12.97
2023-05-14T23:22:34.080Z,13.03
2023-05-14T23:24:55.515Z,13.07
2023-05-14T23:27:17.138Z,13.02
2023-05-14T23:29:38.608Z,12.98
2023-05-14T23:32:00.100Z,12.90
2023-05-14T23:34:22.209Z,12.93
2023-05-14T23:36:44.806Z,12.91
2023-05-14T23:39:06.504Z,12.94
2023-05-14T23:41:27.983Z,12.94
2023-05-14T23:43:49.435Z,12.88
2023-05-14T23:46:11.260Z,12.72
2023-05-14T23:48:32.788Z,12.54
2023-05-14T23:50:54.275Z,12.62
2023-05-14T23:53:15.719Z,12.69
2023-05-14T23:55:37.309Z,12.68
2023-05-14T23:57:58.774Z,12.55
